sensor_id;sensor_type;location;lat;lon;timestamp;temperature;humidity
12504;DHT22;6316;48.118;-1.690;2023-08-21T00:00:35;20.30;99.90
12504;DHT22;6316;48.118;-1.690;2023-08-21T00:03:01;20.20;99.90
12504;DHT22;6316;48.118;-1.690;2023-08-21T00:05:26;20.20;99.90
12504;DHT22;6316;48.118;-1.690;2023-08-21T00:07:52;20.20;99.90
12504;DHT22;6316;48.118;-1.690;2023-08-21T00:10:18;20.20;99.90
12504;DHT22;6316;48.118;-1.690;2023-08-21T00:12:43;20.10;99.90
12504;DHT22;6316;48.118;-1.690;2023-08-21T00:15:09;20.10;99.90
12504;DHT22;6316;48.118;-1.690;2023-08-21T00:17:35;20.10;99.90
12504;DHT22;6316;48.118;-1.690;2023-08-21T00:20:01;20.10;99.90
12504;DHT22;6316;48.118;-1.690;2023-08-21T00:22:28;20.10;99.90
12504;DHT22;6316;48.118;-1.690;2023-08-21T00:24:53;20.00;99.90
12504;DHT22;6316;48.118;-1.690;2023-08-21T00:27:19;20.00;99.90
12504;DHT22;6316;48.118;-1.690;2023-08-21T00:29:45;20.00;99.90
12504;DHT22;6316;48.118;-1.690;2023-08-21T00:32:10;19.90;99.90
12504;DHT22;6316;48.118;-1.690;2023-08-21T00:34:37;19.90;99.90
12504;DHT22;6316;48.118;-1.690;2023-08-21T00:37:03;19.90;99.90
12504;DHT22;6316;48.118;-1.690;2023-08-21T00:39:29;19.90;99.90
12504;DHT22;6316;48.118;-1.690;2023-08-21T00:41:55;19.80;99.90
12504;DHT22;6316;48.118;-1.690;2023-08-21T00:44:21;19.80;99.90
12504;DHT22;6316;48.118;-1.690;2023-08-21T00:46:46;19.80;99.90
12504;DHT22;6316;48.118;-1.690;2023-08-21T00:49:12;19.70;99.90
12504;DHT22;6316;48.118;-1.690;2023-08-21T00:51:38;19.70;99.90
12504;DHT22;6316;48.118;-1.690;2023-08-21T00:54:04;19.70;99.90
12504;DHT22;6316;48.118;-1.690;2023-08-21T00:56:29;19.60;99.90
12504;DHT22;6316;48.118;-1.690;2023-08-21T00:58:56;19.60;99.90
12504;DHT22;6316;48.118;-1.690;2023-08-21T01:01:24;19.60;99.90
12504;DHT22;6316;48.118;-1.690;2023-08-21T01:03:51;19.60;99.90
12504;DHT22;6316;48.118;-1.690;2023-08-21T01:06:16;19.50;99.90
12504;DHT22;6316;48.118;-1.690;2023-08-21T01:08:50;19.50;99.90
12504;DHT22;6316;48.118;-1.690;2023-08-21T01:16:40;19.50;99.90
12504;DHT22;6316;48.118;-1.690;2023-08-21T01:19:10;19.40;99.90
12504;DHT22;6316;48.118;-1.690;2023-08-21T01:21:37;19.40;99.90
12504;DHT22;6316;48.118;-1.690;2023-08-21T01:24:03;19.40;99.90
12504;DHT22;6316;48.118;-1.690;2023-08-21T01:26:29;19.30;99.90
12504;DHT22;6316;48.118;-1.690;2023-08-21T01:28:55;19.30;99.90
12504;DHT22;6316;48.118;-1.690;2023-08-21T01:31:31;19.30;99.90
12504;DHT22;6316;48.118;-1.690;2023-08-21T01:34:01;19.30;99.90
12504;DHT22;6316;48.118;-1.690;2023-08-21T01:36:28;19.30;99.90
12504;DHT22;6316;48.118;-1.690;2023-08-21T01:38:54;19.30;99.90
12504;DHT22;6316;48.118;-1.690;2023-08-21T01:41:22;19.20;99.90
12504;DHT22;6316;48.118;-1.690;2023-08-21T01:43:48;19.20;99.90
12504;DHT22;6316;48.118;-1.690;2023-08-21T01:46:14;19.20;99.90
12504;DHT22;6316;48.118;-1.690;2023-08-21T01:48:39;19.20;99.90
12504;DHT22;6316;48.118;-1.690;2023-08-21T01:51:05;19.20;99.90
12504;DHT22;6316;48.118;-1.690;2023-08-21T01:53:30;19.10;99.90
12504;DHT22;6316;48.118;-1.690;2023-08-21T01:55:56;19.10;99.90
12504;DHT22;6316;48.118;-1.690;2023-08-21T01:58:22;19.10;99.90
12504;DHT22;6316;48.118;-1.690;2023-08-21T02:00:47;19.10;99.90
12504;DHT22;6316;48.118;-1.690;2023-08-21T02:03:14;19.00;99.90
12504;DHT22;6316;48.118;-1.690;2023-08-21T02:05:40;19.00;99.90
12504;DHT22;6316;48.118;-1.690;2023-08-21T02:08:07;19.00;99.90
12504;DHT22;6316;48.118;-1.690;2023-08-21T02:10:32;19.00;99.90
12504;DHT22;6316;48.118;-1.690;2023-08-21T02:12:58;19.00;99.90
12504;DHT22;6316;48.118;-1.690;2023-08-21T02:15:24;18.90;99.90
12504;DHT22;6316;48.118;-1.690;2023-08-21T02:17:49;18.90;99.90
12504;DHT22;6316;48.118;-1.690;2023-08-21T02:20:15;18.90;99.90
12504;DHT22;6316;48.118;-1.690;2023-08-21T02:22:41;18.90;99.90
12504;DHT22;6316;48.118;-1.690;2023-08-21T02:25:07;18.90;99.90
12504;DHT22;6316;48.118;-1.690;2023-08-21T02:27:33;18.80;99.90
12504;DHT22;6316;48.118;-1.690;2023-08-21T02:29:58;18.80;99.90
12504;DHT22;6316;48.118;-1.690;2023-08-21T02:32:24;18.80;99.90
12504;DHT22;6316;48.118;-1.690;2023-08-21T02:34:49;18.80;99.90
12504;DHT22;6316;48.118;-1.690;2023-08-21T02:37:15;18.80;99.90
12504;DHT22;6316;48.118;-1.690;2023-08-21T02:39:41;18.80;99.90
12504;DHT22;6316;48.118;-1.690;2023-08-21T02:42:06;18.70;99.90
12504;DHT22;6316;48.118;-1.690;2023-08-21T02:44:32;18.70;99.90
12504;DHT22;6316;48.118;-1.690;2023-08-21T02:46:58;18.70;99.90
12504;DHT22;6316;48.118;-1.690;2023-08-21T02:49:23;18.70;99.90
12504;DHT22;6316;48.118;-1.690;2023-08-21T02:51:49;18.70;99.90
12504;DHT22;6316;48.118;-1.690;2023-08-21T02:54:14;18.70;99.90
12504;DHT22;6316;48.118;-1.690;2023-08-21T02:56:40;18.70;99.90
12504;DHT22;6316;48.118;-1.690;2023-08-21T02:59:06;18.60;99.90
12504;DHT22;6316;48.118;-1.690;2023-08-21T03:01:31;18.60;99.90
12504;DHT22;6316;48.118;-1.690;2023-08-21T03:03:57;18.60;99.90
12504;DHT22;6316;48.118;-1.690;2023-08-21T03:06:23;18.60;99.90
12504;DHT22;6316;48.118;-1.690;2023-08-21T03:08:48;18.60;99.90
12504;DHT22;6316;48.118;-1.690;2023-08-21T03:11:14;18.60;99.90
12504;DHT22;6316;48.118;-1.690;2023-08-21T03:13:40;18.60;99.90
12504;DHT22;6316;48.118;-1.690;2023-08-21T03:16:06;18.50;99.90
12504;DHT22;6316;48.118;-1.690;2023-08-21T03:18:34;18.50;99.90
12504;DHT22;6316;48.118;-1.690;2023-08-21T03:20:59;18.50;99.90
12504;DHT22;6316;48.118;-1.690;2023-08-21T03:23:25;18.50;99.90
12504;DHT22;6316;48.118;-1.690;2023-08-21T03:25:54;18.50;99.90
12504;DHT22;6316;48.118;-1.690;2023-08-21T03:28:19;18.50;99.90
12504;DHT22;6316;48.118;-1.690;2023-08-21T03:30:45;18.50;99.90
12504;DHT22;6316;48.118;-1.690;2023-08-21T03:33:11;18.50;99.90
12504;DHT22;6316;48.118;-1.690;2023-08-21T03:35:36;18.50;99.90
12504;DHT22;6316;48.118;-1.690;2023-08-21T03:38:02;18.50;99.90
12504;DHT22;6316;48.118;-1.690;2023-08-21T03:40:28;18.50;99.90
12504;DHT22;6316;48.118;-1.690;2023-08-21T03:42:54;18.50;99.90
12504;DHT22;6316;48.118;-1.690;2023-08-21T03:45:19;18.50;99.90
12504;DHT22;6316;48.118;-1.690;2023-08-21T03:47:45;18.50;99.90
12504;DHT22;6316;48.118;-1.690;2023-08-21T03:50:11;18.50;99.90
12504;DHT22;6316;48.118;-1.690;2023-08-21T03:52:36;18.50;99.90
12504;DHT22;6316;48.118;-1.690;2023-08-21T03:55:02;18.50;99.90
12504;DHT22;6316;48.118;-1.690;2023-08-21T03:57:28;18.50;99.90
12504;DHT22;6316;48.118;-1.690;2023-08-21T03:59:53;18.50;99.90
12504;DHT22;6316;48.118;-1.690;2023-08-21T04:02:19;18.50;99.90
12504;DHT22;6316;48.118;-1.690;2023-08-21T04:04:45;18.50;99.90
12504;DHT22;6316;48.118;-1.690;2023-08-21T04:07:10;18.50;99.90
12504;DHT22;6316;48.118;-1.690;2023-08-21T04:09:36;18.50;99.90
12504;DHT22;6316;48.118;-1.690;2023-08-21T04:12:02;18.50;99.90
12504;DHT22;6316;48.118;-1.690;2023-08-21T04:14:27;18.50;99.90
12504;DHT22;6316;48.118;-1.690;2023-08-21T04:16:53;18.50;99.90
12504;DHT22;6316;48.118;-1.690;2023-08-21T04:19:18;18.50;99.90
12504;DHT22;6316;48.118;-1.690;2023-08-21T04:21:44;18.50;99.90
12504;DHT22;6316;48.118;-1.690;2023-08-21T04:24:10;18.50;99.90
12504;DHT22;6316;48.118;-1.690;2023-08-21T04:26:35;18.50;99.90
12504;DHT22;6316;48.118;-1.690;2023-08-21T04:29:01;18.50;99.90
12504;DHT22;6316;48.118;-1.690;2023-08-21T04:31:26;18.40;99.90
12504;DHT22;6316;48.118;-1.690;2023-08-21T04:33:52;18.40;99.90
12504;DHT22;6316;48.118;-1.690;2023-08-21T04:36:18;18.40;99.90
12504;DHT22;6316;48.118;-1.690;2023-08-21T04:38:43;18.40;99.90
12504;DHT22;6316;48.118;-1.690;2023-08-21T04:41:09;18.40;99.90
12504;DHT22;6316;48.118;-1.690;2023-08-21T04:43:35;18.40;99.90
12504;DHT22;6316;48.118;-1.690;2023-08-21T04:46:01;18.40;99.90
12504;DHT22;6316;48.118;-1.690;2023-08-21T04:48:26;18.30;99.90
12504;DHT22;6316;48.118;-1.690;2023-08-21T04:50:52;18.30;99.90
12504;DHT22;6316;48.118;-1.690;2023-08-21T04:53:18;18.30;99.90
12504;DHT22;6316;48.118;-1.690;2023-08-21T04:55:43;18.30;99.90
12504;DHT22;6316;48.118;-1.690;2023-08-21T04:58:10;18.30;99.90
12504;DHT22;6316;48.118;-1.690;2023-08-21T05:00:36;18.20;99.90
12504;DHT22;6316;48.118;-1.690;2023-08-21T05:03:01;18.20;99.90
12504;DHT22;6316;48.118;-1.690;2023-08-21T05:05:27;18.20;99.90
12504;DHT22;6316;48.118;-1.690;2023-08-21T05:07:53;18.20;99.90
12504;DHT22;6316;48.118;-1.690;2023-08-21T05:10:19;18.20;99.90
12504;DHT22;6316;48.118;-1.690;2023-08-21T05:12:46;18.20;99.90
12504;DHT22;6316;48.118;-1.690;2023-08-21T05:15:12;18.20;99.90
12504;DHT22;6316;48.118;-1.690;2023-08-21T05:17:37;18.10;99.90
12504;DHT22;6316;48.118;-1.690;2023-08-21T05:20:03;18.10;99.90
12504;DHT22;6316;48.118;-1.690;2023-08-21T05:22:29;18.10;99.90
12504;DHT22;6316;48.118;-1.690;2023-08-21T05:24:55;18.10;99.90
12504;DHT22;6316;48.118;-1.690;2023-08-21T05:27:20;18.10;99.90
12504;DHT22;6316;48.118;-1.690;2023-08-21T05:29:46;18.00;99.90
12504;DHT22;6316;48.118;-1.690;2023-08-21T05:32:12;18.00;99.90
12504;DHT22;6316;48.118;-1.690;2023-08-21T05:34:38;18.00;99.90
12504;DHT22;6316;48.118;-1.690;2023-08-21T05:37:04;18.00;99.90
12504;DHT22;6316;48.118;-1.690;2023-08-21T05:39:29;18.00;99.90
12504;DHT22;6316;48.118;-1.690;2023-08-21T05:41:55;18.00;99.90
12504;DHT22;6316;48.118;-1.690;2023-08-21T05:44:21;18.00;99.90
12504;DHT22;6316;48.118;-1.690;2023-08-21T05:46:46;18.10;99.90
12504;DHT22;6316;48.118;-1.690;2023-08-21T05:49:12;18.10;99.90
12504;DHT22;6316;48.118;-1.690;2023-08-21T05:51:38;18.10;99.90
12504;DHT22;6316;48.118;-1.690;2023-08-21T05:54:03;18.10;99.90
12504;DHT22;6316;48.118;-1.690;2023-08-21T05:56:29;18.10;99.90
12504;DHT22;6316;48.118;-1.690;2023-08-21T05:58:54;18.10;99.90
12504;DHT22;6316;48.118;-1.690;2023-08-21T06:01:20;18.20;99.90
12504;DHT22;6316;48.118;-1.690;2023-08-21T06:03:46;18.20;99.90
12504;DHT22;6316;48.118;-1.690;2023-08-21T06:06:12;18.20;99.90
12504;DHT22;6316;48.118;-1.690;2023-08-21T06:08:37;18.20;99.90
12504;DHT22;6316;48.118;-1.690;2023-08-21T06:11:03;18.20;99.90
12504;DHT22;6316;48.118;-1.690;2023-08-21T06:13:29;18.30;99.90
12504;DHT22;6316;48.118;-1.690;2023-08-21T06:15:54;18.30;99.90
12504;DHT22;6316;48.118;-1.690;2023-08-21T06:18:20;18.30;99.90
12504;DHT22;6316;48.118;-1.690;2023-08-21T06:20:46;18.30;99.90
12504;DHT22;6316;48.118;-1.690;2023-08-21T06:23:12;18.30;99.90
12504;DHT22;6316;48.118;-1.690;2023-08-21T06:25:37;18.30;99.90
12504;DHT22;6316;48.118;-1.690;2023-08-21T06:28:03;18.40;99.90
12504;DHT22;6316;48.118;-1.690;2023-08-21T06:30:29;18.40;99.90
12504;DHT22;6316;48.118;-1.690;2023-08-21T06:32:55;18.40;99.90
12504;DHT22;6316;48.118;-1.690;2023-08-21T06:35:21;18.40;99.90
12504;DHT22;6316;48.118;-1.690;2023-08-21T06:37:47;18.40;99.90
12504;DHT22;6316;48.118;-1.690;2023-08-21T06:40:13;18.40;99.90
12504;DHT22;6316;48.118;-1.690;2023-08-21T06:42:38;18.50;99.90
12504;DHT22;6316;48.118;-1.690;2023-08-21T06:45:05;18.50;99.90
12504;DHT22;6316;48.118;-1.690;2023-08-21T06:47:31;18.60;99.90
12504;DHT22;6316;48.118;-1.690;2023-08-21T06:49:57;19.20;99.90
12504;DHT22;6316;48.118;-1.690;2023-08-21T06:52:23;19.90;99.90
12504;DHT22;6316;48.118;-1.690;2023-08-21T06:54:48;20.60;99.90
12504;DHT22;6316;48.118;-1.690;2023-08-21T06:57:14;21.90;99.90
12504;DHT22;6316;48.118;-1.690;2023-08-21T06:59:40;23.40;99.90
12504;DHT22;6316;48.118;-1.690;2023-08-21T07:02:05;25.00;99.90
12504;DHT22;6316;48.118;-1.690;2023-08-21T07:04:31;26.30;99.90
12504;DHT22;6316;48.118;-1.690;2023-08-21T07:06:58;27.40;99.90
12504;DHT22;6316;48.118;-1.690;2023-08-21T07:09:24;28.40;99.90
12504;DHT22;6316;48.118;-1.690;2023-08-21T07:11:49;29.20;99.90
12504;DHT22;6316;48.118;-1.690;2023-08-21T07:14:15;29.90;99.90
12504;DHT22;6316;48.118;-1.690;2023-08-21T07:16:42;30.50;99.90
12504;DHT22;6316;48.118;-1.690;2023-08-21T07:19:08;31.00;99.90
12504;DHT22;6316;48.118;-1.690;2023-08-21T07:21:34;31.50;99.90
12504;DHT22;6316;48.118;-1.690;2023-08-21T07:24:02;31.90;99.90
12504;DHT22;6316;48.118;-1.690;2023-08-21T07:26:28;32.40;99.90
12504;DHT22;6316;48.118;-1.690;2023-08-21T07:28:54;32.80;99.90
12504;DHT22;6316;48.118;-1.690;2023-08-21T07:31:20;33.20;99.90
12504;DHT22;6316;48.118;-1.690;2023-08-21T07:33:45;33.50;99.90
12504;DHT22;6316;48.118;-1.690;2023-08-21T07:36:11;33.70;99.90
12504;DHT22;6316;48.118;-1.690;2023-08-21T07:38:45;34.00;99.90
12504;DHT22;6316;48.118;-1.690;2023-08-21T07:41:11;34.20;99.90
12504;DHT22;6316;48.118;-1.690;2023-08-21T07:43:39;34.40;99.90
12504;DHT22;6316;48.118;-1.690;2023-08-21T07:46:07;34.50;99.90
12504;DHT22;6316;48.118;-1.690;2023-08-21T07:48:34;34.60;99.90
12504;DHT22;6316;48.118;-1.690;2023-08-21T07:51:00;34.90;99.90
12504;DHT22;6316;48.118;-1.690;2023-08-21T07:53:26;35.00;99.90
12504;DHT22;6316;48.118;-1.690;2023-08-21T07:55:52;35.00;99.90
12504;DHT22;6316;48.118;-1.690;2023-08-21T07:58:18;35.10;99.90
12504;DHT22;6316;48.118;-1.690;2023-08-21T08:00:44;35.00;99.90
12504;DHT22;6316;48.118;-1.690;2023-08-21T08:03:10;34.90;99.90
12504;DHT22;6316;48.118;-1.690;2023-08-21T08:05:36;34.90;99.90
12504;DHT22;6316;48.118;-1.690;2023-08-21T08:08:02;34.80;99.90
12504;DHT22;6316;48.118;-1.690;2023-08-21T08:10:28;34.70;99.90
12504;DHT22;6316;48.118;-1.690;2023-08-21T08:12:54;34.60;99.90
12504;DHT22;6316;48.118;-1.690;2023-08-21T08:15:20;34.70;99.90
12504;DHT22;6316;48.118;-1.690;2023-08-21T08:17:46;34.80;99.90
12504;DHT22;6316;48.118;-1.690;2023-08-21T08:20:15;35.00;99.90
12504;DHT22;6316;48.118;-1.690;2023-08-21T08:22:41;35.30;99.90
12504;DHT22;6316;48.118;-1.690;2023-08-21T08:25:07;35.40;99.90
12504;DHT22;6316;48.118;-1.690;2023-08-21T08:27:32;35.70;99.90
12504;DHT22;6316;48.118;-1.690;2023-08-21T08:29:59;35.80;99.90
12504;DHT22;6316;48.118;-1.690;2023-08-21T08:32:25;35.80;99.90
12504;DHT22;6316;48.118;-1.690;2023-08-21T08:34:52;35.80;99.90
12504;DHT22;6316;48.118;-1.690;2023-08-21T08:37:17;35.80;99.90
12504;DHT22;6316;48.118;-1.690;2023-08-21T08:39:43;35.80;99.90
12504;DHT22;6316;48.118;-1.690;2023-08-21T08:42:10;35.80;99.90
12504;DHT22;6316;48.118;-1.690;2023-08-21T08:44:36;35.70;99.90
12504;DHT22;6316;48.118;-1.690;2023-08-21T08:47:03;35.60;99.90
12504;DHT22;6316;48.118;-1.690;2023-08-21T08:49:30;35.50;99.90
12504;DHT22;6316;48.118;-1.690;2023-08-21T08:51:57;35.40;99.90
12504;DHT22;6316;48.118;-1.690;2023-08-21T08:54:24;35.20;99.90
12504;DHT22;6316;48.118;-1.690;2023-08-21T08:56:53;35.00;99.90
12504;DHT22;6316;48.118;-1.690;2023-08-21T08:59:19;34.80;99.90
12504;DHT22;6316;48.118;-1.690;2023-08-21T09:01:46;34.50;99.80
12504;DHT22;6316;48.118;-1.690;2023-08-21T09:04:11;34.10;99.80
12504;DHT22;6316;48.118;-1.690;2023-08-21T09:06:37;33.60;99.90
12504;DHT22;6316;48.118;-1.690;2023-08-21T09:09:03;33.00;99.90
12504;DHT22;6316;48.118;-1.690;2023-08-21T09:11:29;32.40;99.90
12504;DHT22;6316;48.118;-1.690;2023-08-21T09:13:55;31.90;99.90
12504;DHT22;6316;48.118;-1.690;2023-08-21T09:16:23;31.40;99.90
12504;DHT22;6316;48.118;-1.690;2023-08-21T09:18:55;30.90;99.90
12504;DHT22;6316;48.118;-1.690;2023-08-21T09:21:25;30.40;99.90
12504;DHT22;6316;48.118;-1.690;2023-08-21T09:24:02;29.90;99.90
12504;DHT22;6316;48.118;-1.690;2023-08-21T09:26:31;29.40;99.90
12504;DHT22;6316;48.118;-1.690;2023-08-21T09:29:04;28.90;99.90
12504;DHT22;6316;48.118;-1.690;2023-08-21T09:31:32;28.40;99.90
12504;DHT22;6316;48.118;-1.690;2023-08-21T09:33:59;28.10;99.90
12504;DHT22;6316;48.118;-1.690;2023-08-21T09:36:27;27.90;99.90
12504;DHT22;6316;48.118;-1.690;2023-08-21T09:38:52;27.70;99.90
12504;DHT22;6316;48.118;-1.690;2023-08-21T09:41:22;27.50;99.90
12504;DHT22;6316;48.118;-1.690;2023-08-21T09:43:48;27.30;99.90
12504;DHT22;6316;48.118;-1.690;2023-08-21T09:46:15;27.20;99.90
12504;DHT22;6316;48.118;-1.690;2023-08-21T09:48:43;27.00;99.90
12504;DHT22;6316;48.118;-1.690;2023-08-21T09:51:09;26.90;99.90
12504;DHT22;6316;48.118;-1.690;2023-08-21T09:53:40;26.80;99.90
12504;DHT22;6316;48.118;-1.690;2023-08-21T09:56:06;26.70;99.90
12504;DHT22;6316;48.118;-1.690;2023-08-21T09:58:35;26.60;99.90
12504;DHT22;6316;48.118;-1.690;2023-08-21T10:01:06;26.50;99.90
12504;DHT22;6316;48.118;-1.690;2023-08-21T10:03:40;26.40;99.90
12504;DHT22;6316;48.118;-1.690;2023-08-21T10:06:08;26.40;99.90
12504;DHT22;6316;48.118;-1.690;2023-08-21T10:08:39;26.30;99.90
12504;DHT22;6316;48.118;-1.690;2023-08-21T10:11:09;26.30;99.90
12504;DHT22;6316;48.118;-1.690;2023-08-21T10:13:37;26.30;99.90
12504;DHT22;6316;48.118;-1.690;2023-08-21T10:16:04;26.30;99.90
12504;DHT22;6316;48.118;-1.690;2023-08-21T10:18:35;26.20;99.90
12504;DHT22;6316;48.118;-1.690;2023-08-21T10:21:12;26.20;99.90
12504;DHT22;6316;48.118;-1.690;2023-08-21T10:23:38;26.10;99.90
12504;DHT22;6316;48.118;-1.690;2023-08-21T10:26:09;26.10;99.90
12504;DHT22;6316;48.118;-1.690;2023-08-21T10:29:10;26.10;99.90
12504;DHT22;6316;48.118;-1.690;2023-08-21T10:31:40;26.10;99.90
12504;DHT22;6316;48.118;-1.690;2023-08-21T10:34:10;26.10;99.90
12504;DHT22;6316;48.118;-1.690;2023-08-21T10:39:21;26.10;99.90
12504;DHT22;6316;48.118;-1.690;2023-08-21T10:49:47;26.10;99.90
12504;DHT22;6316;48.118;-1.690;2023-08-21T10:52:14;26.10;99.90
12504;DHT22;6316;48.118;-1.690;2023-08-21T10:55:07;26.10;99.90
12504;DHT22;6316;48.118;-1.690;2023-08-21T10:57:34;26.20;99.90
12504;DHT22;6316;48.118;-1.690;2023-08-21T11:00:10;26.20;99.90
12504;DHT22;6316;48.118;-1.690;2023-08-21T11:02:41;26.30;99.90
12504;DHT22;6316;48.118;-1.690;2023-08-21T11:05:08;26.30;99.90
12504;DHT22;6316;48.118;-1.690;2023-08-21T11:07:38;26.30;99.90
12504;DHT22;6316;48.118;-1.690;2023-08-21T11:10:06;26.30;99.90
12504;DHT22;6316;48.118;-1.690;2023-08-21T11:12:33;26.40;99.90
12504;DHT22;6316;48.118;-1.690;2023-08-21T11:14:58;26.40;99.90
12504;DHT22;6316;48.118;-1.690;2023-08-21T11:17:24;26.40;99.90
12504;DHT22;6316;48.118;-1.690;2023-08-21T11:19:50;26.40;99.90
12504;DHT22;6316;48.118;-1.690;2023-08-21T11:22:16;26.40;99.90
12504;DHT22;6316;48.118;-1.690;2023-08-21T11:24:47;26.40;99.90
12504;DHT22;6316;48.118;-1.690;2023-08-21T11:27:15;26.40;99.90
12504;DHT22;6316;48.118;-1.690;2023-08-21T11:29:48;26.40;99.90
12504;DHT22;6316;48.118;-1.690;2023-08-21T11:32:19;26.40;99.90
12504;DHT22;6316;48.118;-1.690;2023-08-21T11:34:55;26.40;99.90
12504;DHT22;6316;48.118;-1.690;2023-08-21T11:37:25;26.40;99.90
12504;DHT22;6316;48.118;-1.690;2023-08-21T11:39:54;26.50;99.90
12504;DHT22;6316;48.118;-1.690;2023-08-21T11:42:22;26.50;99.90
12504;DHT22;6316;48.118;-1.690;2023-08-21T11:44:52;26.60;99.90
12504;DHT22;6316;48.118;-1.690;2023-08-21T11:47:19;26.70;99.90
12504;DHT22;6316;48.118;-1.690;2023-08-21T11:49:46;26.80;99.90
12504;DHT22;6316;48.118;-1.690;2023-08-21T11:52:20;26.90;99.90
12504;DHT22;6316;48.118;-1.690;2023-08-21T11:54:49;26.90;99.90
12504;DHT22;6316;48.118;-1.690;2023-08-21T11:57:15;27.00;99.90
12504;DHT22;6316;48.118;-1.690;2023-08-21T11:59:41;27.00;99.90
12504;DHT22;6316;48.118;-1.690;2023-08-21T12:02:18;27.00;99.90
12504;DHT22;6316;48.118;-1.690;2023-08-21T12:04:44;27.10;99.90
12504;DHT22;6316;48.118;-1.690;2023-08-21T12:07:10;27.10;99.90
12504;DHT22;6316;48.118;-1.690;2023-08-21T12:09:36;27.10;99.90
12504;DHT22;6316;48.118;-1.690;2023-08-21T12:12:02;27.10;99.90
12504;DHT22;6316;48.118;-1.690;2023-08-21T12:14:28;27.20;99.90
12504;DHT22;6316;48.118;-1.690;2023-08-21T12:16:54;27.20;99.90
12504;DHT22;6316;48.118;-1.690;2023-08-21T12:19:22;27.20;99.90
12504;DHT22;6316;48.118;-1.690;2023-08-21T12:21:48;27.20;99.90
12504;DHT22;6316;48.118;-1.690;2023-08-21T12:24:14;27.20;99.90
12504;DHT22;6316;48.118;-1.690;2023-08-21T12:26:40;27.20;99.90
12504;DHT22;6316;48.118;-1.690;2023-08-21T12:29:05;27.30;99.90
12504;DHT22;6316;48.118;-1.690;2023-08-21T12:31:31;27.30;99.90
12504;DHT22;6316;48.118;-1.690;2023-08-21T12:33:56;27.40;99.90
12504;DHT22;6316;48.118;-1.690;2023-08-21T12:36:22;27.40;99.90
12504;DHT22;6316;48.118;-1.690;2023-08-21T12:38:48;27.50;99.90
12504;DHT22;6316;48.118;-1.690;2023-08-21T12:41:14;27.50;99.90
12504;DHT22;6316;48.118;-1.690;2023-08-21T12:43:40;27.50;99.90
12504;DHT22;6316;48.118;-1.690;2023-08-21T12:46:05;27.50;99.90
12504;DHT22;6316;48.118;-1.690;2023-08-21T12:48:31;27.50;99.90
12504;DHT22;6316;48.118;-1.690;2023-08-21T12:50:57;27.60;99.90
12504;DHT22;6316;48.118;-1.690;2023-08-21T12:53:22;27.60;99.90
12504;DHT22;6316;48.118;-1.690;2023-08-21T12:55:48;27.70;99.90
12504;DHT22;6316;48.118;-1.690;2023-08-21T12:58:14;27.70;99.90
12504;DHT22;6316;48.118;-1.690;2023-08-21T13:00:40;27.80;99.90
12504;DHT22;6316;48.118;-1.690;2023-08-21T13:03:06;27.80;99.90
12504;DHT22;6316;48.118;-1.690;2023-08-21T13:05:31;27.90;99.90
12504;DHT22;6316;48.118;-1.690;2023-08-21T13:07:57;27.80;99.90
12504;DHT22;6316;48.118;-1.690;2023-08-21T13:10:23;27.80;99.90
12504;DHT22;6316;48.118;-1.690;2023-08-21T13:12:48;27.80;99.90
12504;DHT22;6316;48.118;-1.690;2023-08-21T13:15:15;27.70;99.90
12504;DHT22;6316;48.118;-1.690;2023-08-21T13:17:41;27.70;99.90
12504;DHT22;6316;48.118;-1.690;2023-08-21T13:20:09;27.70;99.90
12504;DHT22;6316;48.118;-1.690;2023-08-21T13:22:50;27.80;99.90
12504;DHT22;6316;48.118;-1.690;2023-08-21T13:25:18;27.90;99.90
12504;DHT22;6316;48.118;-1.690;2023-08-21T13:27:46;28.00;99.90
12504;DHT22;6316;48.118;-1.690;2023-08-21T13:30:12;28.00;99.90
12504;DHT22;6316;48.118;-1.690;2023-08-21T13:32:38;28.10;99.90
12504;DHT22;6316;48.118;-1.690;2023-08-21T13:35:04;28.10;99.90
12504;DHT22;6316;48.118;-1.690;2023-08-21T13:37:32;28.10;99.90
12504;DHT22;6316;48.118;-1.690;2023-08-21T13:39:58;28.20;99.90
12504;DHT22;6316;48.118;-1.690;2023-08-21T13:42:25;28.20;99.90
12504;DHT22;6316;48.118;-1.690;2023-08-21T13:44:51;28.30;99.90
12504;DHT22;6316;48.118;-1.690;2023-08-21T13:47:18;28.30;99.90
12504;DHT22;6316;48.118;-1.690;2023-08-21T13:49:43;28.30;99.90
12504;DHT22;6316;48.118;-1.690;2023-08-21T13:52:09;28.20;99.90
12504;DHT22;6316;48.118;-1.690;2023-08-21T13:54:35;28.20;99.90
12504;DHT22;6316;48.118;-1.690;2023-08-21T13:57:00;28.20;99.90
12504;DHT22;6316;48.118;-1.690;2023-08-21T13:59:26;28.30;99.90
12504;DHT22;6316;48.118;-1.690;2023-08-21T14:01:52;28.30;99.90
12504;DHT22;6316;48.118;-1.690;2023-08-21T14:04:18;28.40;99.90
12504;DHT22;6316;48.118;-1.690;2023-08-21T14:06:43;28.40;99.90
12504;DHT22;6316;48.118;-1.690;2023-08-21T14:09:09;28.40;99.90
12504;DHT22;6316;48.118;-1.690;2023-08-21T14:11:35;28.50;99.90
12504;DHT22;6316;48.118;-1.690;2023-08-21T14:14:00;28.50;99.90
12504;DHT22;6316;48.118;-1.690;2023-08-21T14:16:26;28.50;99.90
12504;DHT22;6316;48.118;-1.690;2023-08-21T14:18:52;28.60;99.90
12504;DHT22;6316;48.118;-1.690;2023-08-21T14:21:17;28.60;99.90
12504;DHT22;6316;48.118;-1.690;2023-08-21T14:23:43;28.60;99.90
12504;DHT22;6316;48.118;-1.690;2023-08-21T14:26:08;28.50;99.90
12504;DHT22;6316;48.118;-1.690;2023-08-21T14:28:34;28.60;99.90
12504;DHT22;6316;48.118;-1.690;2023-08-21T14:31:00;28.60;99.90
12504;DHT22;6316;48.118;-1.690;2023-08-21T14:33:25;28.60;99.90
12504;DHT22;6316;48.118;-1.690;2023-08-21T14:35:51;28.60;99.90
12504;DHT22;6316;48.118;-1.690;2023-08-21T14:38:16;28.60;99.90
12504;DHT22;6316;48.118;-1.690;2023-08-21T14:40:42;28.60;99.90
12504;DHT22;6316;48.118;-1.690;2023-08-21T14:43:08;28.60;99.90
12504;DHT22;6316;48.118;-1.690;2023-08-21T14:45:34;28.60;99.90
12504;DHT22;6316;48.118;-1.690;2023-08-21T14:47:59;28.70;99.90
12504;DHT22;6316;48.118;-1.690;2023-08-21T14:50:25;28.70;99.90
12504;DHT22;6316;48.118;-1.690;2023-08-21T14:52:51;28.70;99.90
12504;DHT22;6316;48.118;-1.690;2023-08-21T14:55:16;28.70;99.90
12504;DHT22;6316;48.118;-1.690;2023-08-21T14:57:42;28.70;99.90
12504;DHT22;6316;48.118;-1.690;2023-08-21T15:00:08;28.70;99.90
12504;DHT22;6316;48.118;-1.690;2023-08-21T15:02:35;28.70;99.90
12504;DHT22;6316;48.118;-1.690;2023-08-21T15:05:02;28.70;99.90
12504;DHT22;6316;48.118;-1.690;2023-08-21T15:07:30;28.70;99.90
12504;DHT22;6316;48.118;-1.690;2023-08-21T15:09:56;28.70;99.90
12504;DHT22;6316;48.118;-1.690;2023-08-21T15:12:21;28.70;99.90
12504;DHT22;6316;48.118;-1.690;2023-08-21T15:14:47;28.70;99.90
12504;DHT22;6316;48.118;-1.690;2023-08-21T15:17:13;28.70;99.90
12504;DHT22;6316;48.118;-1.690;2023-08-21T15:19:39;28.70;99.90
12504;DHT22;6316;48.118;-1.690;2023-08-21T15:22:04;28.70;99.90
12504;DHT22;6316;48.118;-1.690;2023-08-21T15:24:30;28.70;99.90
12504;DHT22;6316;48.118;-1.690;2023-08-21T15:26:55;28.80;99.90
12504;DHT22;6316;48.118;-1.690;2023-08-21T15:29:21;28.80;99.90
12504;DHT22;6316;48.118;-1.690;2023-08-21T15:31:47;28.80;99.90
12504;DHT22;6316;48.118;-1.690;2023-08-21T15:34:12;28.80;99.90
12504;DHT22;6316;48.118;-1.690;2023-08-21T15:36:38;28.90;99.90
12504;DHT22;6316;48.118;-1.690;2023-08-21T15:39:04;28.90;99.90
12504;DHT22;6316;48.118;-1.690;2023-08-21T15:41:29;28.90;99.90